sensor_id;sensor_type;location;lat;lon;timestamp;P1;durP1;ratioP1;P2;durP2;ratioP2
2049;SDS011;8478;49.208;8.806;2023-05-23T00:01:40;22.27;;;20.50;;
2049;SDS011;8478;49.208;8.806;2023-05-23T00:04:07;21.63;;;19.70;;
2049;SDS011;8478;49.208;8.806;2023-05-23T00:06:34;23.30;;;21.47;;
2049;SDS011;8478;49.208;8.806;2023-05-23T00:09:00;23.33;;;21.43;;
2049;SDS011;8478;49.208;8.806;2023-05-23T00:11:26;22.30;;;20.50;;
2049;SDS011;8478;49.208;8.806;2023-05-23T00:13:53;23.30;;;21.40;;
2049;SDS011;8478;49.208;8.806;2023-05-23T00:16:19;24.03;;;21.87;;
2049;SDS011;8478;49.208;8.806;2023-05-23T00:18:46;26.37;;;23.93;;
2049;SDS011;8478;49.208;8.806;2023-05-23T00:21:14;24.30;;;22.10;;
2049;SDS011;8478;49.208;8.806;2023-05-23T00:23:41;25.97;;;23.90;;
2049;SDS011;8478;49.208;8.806;2023-05-23T00:26:07;25.13;;;22.83;;
2049;SDS011;8478;49.208;8.806;2023-05-23T00:28:33;25.70;;;23.50;;
2049;SDS011;8478;49.208;8.806;2023-05-23T00:30:59;24.43;;;22.53;;
2049;SDS011;8478;49.208;8.806;2023-05-23T00:33:25;24.67;;;22.63;;
2049;SDS011;8478;49.208;8.806;2023-05-23T00:35:53;25.73;;;23.50;;
2049;SDS011;8478;49.208;8.806;2023-05-23T00:38:19;28.23;;;25.80;;
2049;SDS011;8478;49.208;8.806;2023-05-23T00:40:45;25.97;;;23.47;;
2049;SDS011;8478;49.208;8.806;2023-05-23T00:43:12;27.60;;;25.03;;
2049;SDS011;8478;49.208;8.806;2023-05-23T00:45:38;27.10;;;24.50;;
2049;SDS011;8478;49.208;8.806;2023-05-23T00:48:04;26.97;;;24.77;;
2049;SDS011;8478;49.208;8.806;2023-05-23T00:50:31;27.10;;;24.70;;
2049;SDS011;8478;49.208;8.806;2023-05-23T00:52:57;30.03;;;27.33;;
2049;SDS011;8478;49.208;8.806;2023-05-23T00:55:24;28.37;;;25.80;;
2049;SDS011;8478;49.208;8.806;2023-05-23T00:57:51;29.80;;;26.93;;
2049;SDS011;8478;49.208;8.806;2023-05-23T01:00:19;28.73;;;25.70;;
2049;SDS011;8478;49.208;8.806;2023-05-23T01:02:46;30.50;;;27.50;;
2049;SDS011;8478;49.208;8.806;2023-05-23T01:05:15;29.57;;;26.90;;
2049;SDS011;8478;49.208;8.806;2023-05-23T01:07:44;26.60;;;23.93;;
2049;SDS011;8478;49.208;8.806;2023-05-23T01:10:11;29.43;;;26.53;;
2049;SDS011;8478;49.208;8.806;2023-05-23T01:18:17;32.60;;;29.40;;
2049;SDS011;8478;49.208;8.806;2023-05-23T01:20:51;31.17;;;28.30;;
2049;SDS011;8478;49.208;8.806;2023-05-23T01:28:39;34.40;;;31.13;;
2049;SDS011;8478;49.208;8.806;2023-05-23T01:31:06;31.70;;;28.83;;
2049;SDS011;8478;49.208;8.806;2023-05-23T01:33:33;30.90;;;27.77;;
2049;SDS011;8478;49.208;8.806;2023-05-23T01:36:00;32.77;;;29.87;;
2049;SDS011;8478;49.208;8.806;2023-05-23T01:38:30;30.23;;;27.70;;
2049;SDS011;8478;49.208;8.806;2023-05-23T01:40:56;32.20;;;29.23;;
2049;SDS011;8478;49.208;8.806;2023-05-23T01:43:22;31.03;;;27.97;;
2049;SDS011;8478;49.208;8.806;2023-05-23T01:45:49;33.63;;;30.40;;
2049;SDS011;8478;49.208;8.806;2023-05-23T01:48:15;33.83;;;30.73;;
2049;SDS011;8478;49.208;8.806;2023-05-23T01:50:42;32.13;;;29.13;;
2049;SDS011;8478;49.208;8.806;2023-05-23T01:53:12;35.33;;;31.70;;
2049;SDS011;8478;49.208;8.806;2023-05-23T01:55:39;34.20;;;31.10;;
2049;SDS011;8478;49.208;8.806;2023-05-23T01:58:05;34.07;;;30.90;;
2049;SDS011;8478;49.208;8.806;2023-05-23T02:00:31;31.63;;;28.63;;
2049;SDS011;8478;49.208;8.806;2023-05-23T02:02:58;32.63;;;29.60;;
2049;SDS011;8478;49.208;8.806;2023-05-23T02:05:24;34.90;;;31.70;;
2049;SDS011;8478;49.208;8.806;2023-05-23T02:07:51;35.80;;;32.07;;
2049;SDS011;8478;49.208;8.806;2023-05-23T02:10:17;32.67;;;29.63;;
2049;SDS011;8478;49.208;8.806;2023-05-23T02:12:44;34.77;;;31.50;;
2049;SDS011;8478;49.208;8.806;2023-05-23T02:15:10;31.03;;;28.10;;
2049;SDS011;8478;49.208;8.806;2023-05-23T02:17:36;32.23;;;29.33;;
2049;SDS011;8478;49.208;8.806;2023-05-23T02:20:06;34.83;;;31.40;;
2049;SDS011;8478;49.208;8.806;2023-05-23T02:22:32;36.23;;;32.60;;
2049;SDS011;8478;49.208;8.806;2023-05-23T02:24:58;35.03;;;31.83;;
2049;SDS011;8478;49.208;8.806;2023-05-23T02:27:25;35.53;;;32.13;;
2049;SDS011;8478;49.208;8.806;2023-05-23T02:29:51;36.83;;;33.07;;
2049;SDS011;8478;49.208;8.806;2023-05-23T02:32:17;37.00;;;33.70;;
2049;SDS011;8478;49.208;8.806;2023-05-23T02:34:43;35.10;;;31.40;;
2049;SDS011;8478;49.208;8.806;2023-05-23T02:37:14;34.73;;;31.47;;
2049;SDS011;8478;49.208;8.806;2023-05-23T02:39:41;35.63;;;32.10;;
2049;SDS011;8478;49.208;8.806;2023-05-23T02:42:07;37.23;;;33.80;;
2049;SDS011;8478;49.208;8.806;2023-05-23T02:44:33;36.90;;;33.50;;
2049;SDS011;8478;49.208;8.806;2023-05-23T02:47:00;37.07;;;33.70;;
2049;SDS011;8478;49.208;8.806;2023-05-23T02:49:26;35.90;;;32.20;;
2049;SDS011;8478;49.208;8.806;2023-05-23T02:51:52;36.77;;;33.07;;
2049;SDS011;8478;49.208;8.806;2023-05-23T02:54:18;37.03;;;33.53;;
2049;SDS011;8478;49.208;8.806;2023-05-23T02:56:44;33.37;;;30.20;;
2049;SDS011;8478;49.208;8.806;2023-05-23T02:59:10;36.83;;;33.37;;
2049;SDS011;8478;49.208;8.806;2023-05-23T03:01:37;38.80;;;34.83;;
2049;SDS011;8478;49.208;8.806;2023-05-23T03:04:03;38.60;;;34.90;;
2049;SDS011;8478;49.208;8.806;2023-05-23T03:06:29;35.97;;;32.50;;
2049;SDS011;8478;49.208;8.806;2023-05-23T03:08:58;33.23;;;30.23;;
2049;SDS011;8478;49.208;8.806;2023-05-23T03:11:24;35.63;;;32.30;;
2049;SDS011;8478;49.208;8.806;2023-05-23T03:13:50;36.20;;;32.97;;
2049;SDS011;8478;49.208;8.806;2023-05-23T03:16:16;35.63;;;32.50;;
2049;SDS011;8478;49.208;8.806;2023-05-23T03:18:42;40.57;;;36.90;;
2049;SDS011;8478;49.208;8.806;2023-05-23T03:21:08;37.07;;;33.47;;
2049;SDS011;8478;49.208;8.806;2023-05-23T03:23:34;38.17;;;34.63;;
2049;SDS011;8478;49.208;8.806;2023-05-23T03:26:00;35.13;;;31.90;;
2049;SDS011;8478;49.208;8.806;2023-05-23T03:28:29;34.03;;;30.93;;
2049;SDS011;8478;49.208;8.806;2023-05-23T03:30:55;35.97;;;32.63;;
2049;SDS011;8478;49.208;8.806;2023-05-23T03:33:21;35.53;;;32.30;;
2049;SDS011;8478;49.208;8.806;2023-05-23T03:35:48;36.53;;;33.33;;
2049;SDS011;8478;49.208;8.806;2023-05-23T03:38:14;38.53;;;34.97;;
2049;SDS011;8478;49.208;8.806;2023-05-23T03:40:40;37.33;;;33.83;;
2049;SDS011;8478;49.208;8.806;2023-05-23T03:43:06;33.53;;;30.17;;
2049;SDS011;8478;49.208;8.806;2023-05-23T03:45:32;36.20;;;32.57;;
2049;SDS011;8478;49.208;8.806;2023-05-23T03:47:58;37.03;;;33.53;;
2049;SDS011;8478;49.208;8.806;2023-05-23T03:50:24;34.00;;;30.90;;
2049;SDS011;8478;49.208;8.806;2023-05-23T03:52:51;36.17;;;32.83;;
2049;SDS011;8478;49.208;8.806;2023-05-23T03:55:17;35.27;;;32.07;;
2049;SDS011;8478;49.208;8.806;2023-05-23T03:57:47;33.77;;;30.57;;
2049;SDS011;8478;49.208;8.806;2023-05-23T04:00:13;34.77;;;31.57;;
2049;SDS011;8478;49.208;8.806;2023-05-23T04:02:39;35.30;;;31.87;;
2049;SDS011;8478;49.208;8.806;2023-05-23T04:05:05;36.53;;;33.30;;
2049;SDS011;8478;49.208;8.806;2023-05-23T04:07:32;37.07;;;33.70;;
2049;SDS011;8478;49.208;8.806;2023-05-23T04:10:01;36.40;;;33.30;;
2049;SDS011;8478;49.208;8.806;2023-05-23T04:12:28;36.40;;;33.17;;
2049;SDS011;8478;49.208;8.806;2023-05-23T04:14:55;33.03;;;29.83;;
2049;SDS011;8478;49.208;8.806;2023-05-23T04:17:22;33.23;;;30.30;;
2049;SDS011;8478;49.208;8.806;2023-05-23T04:19:48;38.63;;;35.10;;
2049;SDS011;8478;49.208;8.806;2023-05-23T04:22:14;36.20;;;32.80;;
2049;SDS011;8478;49.208;8.806;2023-05-23T04:24:40;37.40;;;34.00;;
2049;SDS011;8478;49.208;8.806;2023-05-23T04:27:07;36.70;;;33.30;;
2049;SDS011;8478;49.208;8.806;2023-05-23T04:29:33;36.87;;;33.47;;
2049;SDS011;8478;49.208;8.806;2023-05-23T04:32:00;34.00;;;31.07;;
2049;SDS011;8478;49.208;8.806;2023-05-23T04:34:26;32.73;;;29.83;;
2049;SDS011;8478;49.208;8.806;2023-05-23T04:36:52;34.00;;;30.90;;
2049;SDS011;8478;49.208;8.806;2023-05-23T04:39:18;32.40;;;29.50;;
2049;SDS011;8478;49.208;8.806;2023-05-23T04:41:44;35.73;;;32.27;;
2049;SDS011;8478;49.208;8.806;2023-05-23T04:44:11;38.13;;;34.73;;
2049;SDS011;8478;49.208;8.806;2023-05-23T04:46:38;38.40;;;34.87;;
2049;SDS011;8478;49.208;8.806;2023-05-23T04:49:06;33.20;;;30.13;;
2049;SDS011;8478;49.208;8.806;2023-05-23T04:51:32;33.37;;;30.57;;
2049;SDS011;8478;49.208;8.806;2023-05-23T04:53:59;34.73;;;31.67;;
2049;SDS011;8478;49.208;8.806;2023-05-23T04:56:25;37.30;;;34.00;;
2049;SDS011;8478;49.208;8.806;2023-05-23T04:58:52;36.67;;;33.20;;
2049;SDS011;8478;49.208;8.806;2023-05-23T05:01:18;34.87;;;31.77;;
2049;SDS011;8478;49.208;8.806;2023-05-23T05:03:44;33.17;;;30.27;;
2049;SDS011;8478;49.208;8.806;2023-05-23T05:06:12;34.37;;;31.47;;
2049;SDS011;8478;49.208;8.806;2023-05-23T05:08:38;33.90;;;30.73;;
2049;SDS011;8478;49.208;8.806;2023-05-23T05:11:07;34.67;;;31.60;;
2049;SDS011;8478;49.208;8.806;2023-05-23T05:13:34;34.40;;;31.40;;
2049;SDS011;8478;49.208;8.806;2023-05-23T05:16:00;32.47;;;29.67;;
2049;SDS011;8478;49.208;8.806;2023-05-23T05:18:26;34.63;;;31.73;;
2049;SDS011;8478;49.208;8.806;2023-05-23T05:20:52;32.70;;;29.90;;
2049;SDS011;8478;49.208;8.806;2023-05-23T05:23:18;33.33;;;30.53;;
2049;SDS011;8478;49.208;8.806;2023-05-23T05:25:45;32.03;;;29.30;;
2049;SDS011;8478;49.208;8.806;2023-05-23T05:28:11;35.50;;;32.53;;
2049;SDS011;8478;49.208;8.806;2023-05-23T05:30:37;33.43;;;30.50;;
2049;SDS011;8478;49.208;8.806;2023-05-23T05:33:04;33.77;;;30.87;;
2049;SDS011;8478;49.208;8.806;2023-05-23T05:35:31;33.63;;;30.73;;
2049;SDS011;8478;49.208;8.806;2023-05-23T05:37:58;31.30;;;28.60;;
2049;SDS011;8478;49.208;8.806;2023-05-23T05:40:24;32.80;;;30.10;;
2049;SDS011;8478;49.208;8.806;2023-05-23T05:42:50;33.00;;;30.30;;
2049;SDS011;8478;49.208;8.806;2023-05-23T05:45:17;31.97;;;29.30;;
2049;SDS011;8478;49.208;8.806;2023-05-23T05:47:44;31.37;;;28.77;;
2049;SDS011;8478;49.208;8.806;2023-05-23T05:50:10;30.93;;;28.43;;
2049;SDS011;8478;49.208;8.806;2023-05-23T05:52:36;29.27;;;26.60;;
2049;SDS011;8478;49.208;8.806;2023-05-23T05:57:31;29.57;;;27.03;;
2049;SDS011;8478;49.208;8.806;2023-05-23T05:59:57;28.30;;;26.00;;
2049;SDS011;8478;49.208;8.806;2023-05-23T06:02:23;29.60;;;27.20;;
2049;SDS011;8478;49.208;8.806;2023-05-23T06:04:50;30.50;;;27.97;;
2049;SDS011;8478;49.208;8.806;2023-05-23T06:07:16;28.10;;;25.73;;
2049;SDS011;8478;49.208;8.806;2023-05-23T06:09:43;29.63;;;27.03;;
2049;SDS011;8478;49.208;8.806;2023-05-23T06:12:09;27.90;;;25.70;;
2049;SDS011;8478;49.208;8.806;2023-05-23T06:14:35;28.97;;;26.67;;
2049;SDS011;8478;49.208;8.806;2023-05-23T06:17:01;26.50;;;24.40;;
2049;SDS011;8478;49.208;8.806;2023-05-23T06:19:27;27.60;;;25.40;;
2049;SDS011;8478;49.208;8.806;2023-05-23T06:21:53;26.80;;;24.63;;
2049;SDS011;8478;49.208;8.806;2023-05-23T06:24:19;25.37;;;23.57;;
2049;SDS011;8478;49.208;8.806;2023-05-23T06:26:46;24.80;;;22.93;;
2049;SDS011;8478;49.208;8.806;2023-05-23T06:29:12;25.60;;;23.73;;
2049;SDS011;8478;49.208;8.806;2023-05-23T06:31:38;26.53;;;24.43;;
2049;SDS011;8478;49.208;8.806;2023-05-23T06:34:04;25.67;;;23.77;;
2049;SDS011;8478;49.208;8.806;2023-05-23T06:36:30;24.80;;;23.00;;
2049;SDS011;8478;49.208;8.806;2023-05-23T06:38:56;26.70;;;24.67;;
2049;SDS011;8478;49.208;8.806;2023-05-23T06:41:22;25.90;;;23.90;;
2049;SDS011;8478;49.208;8.806;2023-05-23T06:43:48;26.20;;;24.07;;
2049;SDS011;8478;49.208;8.806;2023-05-23T06:46:14;26.90;;;24.83;;
2049;SDS011;8478;49.208;8.806;2023-05-23T06:48:40;24.63;;;22.83;;
2049;SDS011;8478;49.208;8.806;2023-05-23T06:51:06;25.50;;;23.60;;
2049;SDS011;8478;49.208;8.806;2023-05-23T06:53:32;23.87;;;22.03;;
2049;SDS011;8478;49.208;8.806;2023-05-23T06:55:58;25.40;;;23.53;;
2049;SDS011;8478;49.208;8.806;2023-05-23T06:58:24;24.30;;;22.50;;
2049;SDS011;8478;49.208;8.806;2023-05-23T07:00:51;23.70;;;22.00;;
2049;SDS011;8478;49.208;8.806;2023-05-23T07:03:17;23.97;;;22.17;;
2049;SDS011;8478;49.208;8.806;2023-05-23T07:05:43;23.13;;;21.33;;
2049;SDS011;8478;49.208;8.806;2023-05-23T07:08:09;21.80;;;20.20;;
2049;SDS011;8478;49.208;8.806;2023-05-23T07:10:35;21.60;;;20.00;;
2049;SDS011;8478;49.208;8.806;2023-05-23T07:13:03;22.10;;;20.30;;
2049;SDS011;8478;49.208;8.806;2023-05-23T07:15:29;20.33;;;18.57;;
2049;SDS011;8478;49.208;8.806;2023-05-23T07:17:55;22.63;;;20.90;;
2049;SDS011;8478;49.208;8.806;2023-05-23T07:20:21;22.00;;;20.43;;
2049;SDS011;8478;49.208;8.806;2023-05-23T07:22:47;20.37;;;18.87;;
2049;SDS011;8478;49.208;8.806;2023-05-23T07:25:15;22.73;;;20.97;;
2049;SDS011;8478;49.208;8.806;2023-05-23T07:27:41;21.80;;;20.20;;
2049;SDS011;8478;49.208;8.806;2023-05-23T07:30:07;20.27;;;18.77;;
2049;SDS011;8478;49.208;8.806;2023-05-23T07:32:34;20.80;;;19.10;;
2049;SDS011;8478;49.208;8.806;2023-05-23T07:35:00;21.30;;;19.70;;
2049;SDS011;8478;49.208;8.806;2023-05-23T07:37:26;19.90;;;18.30;;
2049;SDS011;8478;49.208;8.806;2023-05-23T07:39:52;20.47;;;18.90;;
2049;SDS011;8478;49.208;8.806;2023-05-23T07:42:18;19.87;;;18.37;;
2049;SDS011;8478;49.208;8.806;2023-05-23T07:44:44;19.10;;;17.70;;
2049;SDS011;8478;49.208;8.806;2023-05-23T07:47:10;19.07;;;17.67;;
2049;SDS011;8478;49.208;8.806;2023-05-23T07:49:36;19.33;;;18.03;;
2049;SDS011;8478;49.208;8.806;2023-05-23T07:52:02;17.77;;;16.50;;
2049;SDS011;8478;49.208;8.806;2023-05-23T07:54:29;19.30;;;17.67;;
2049;SDS011;8478;49.208;8.806;2023-05-23T07:56:55;17.97;;;16.67;;
2049;SDS011;8478;49.208;8.806;2023-05-23T07:59:21;17.93;;;16.73;;
2049;SDS011;8478;49.208;8.806;2023-05-23T08:01:47;19.17;;;17.83;;
2049;SDS011;8478;49.208;8.806;2023-05-23T08:04:15;17.40;;;16.20;;
2049;SDS011;8478;49.208;8.806;2023-05-23T08:06:41;17.83;;;16.33;;
2049;SDS011;8478;49.208;8.806;2023-05-23T08:09:07;16.37;;;15.17;;
2049;SDS011;8478;49.208;8.806;2023-05-23T08:11:33;16.03;;;14.93;;
2049;SDS011;8478;49.208;8.806;2023-05-23T08:14:00;17.63;;;16.33;;
2049;SDS011;8478;49.208;8.806;2023-05-23T08:16:26;17.87;;;16.37;;
2049;SDS011;8478;49.208;8.806;2023-05-23T08:18:52;17.57;;;16.27;;
2049;SDS011;8478;49.208;8.806;2023-05-23T08:21:18;16.27;;;15.10;;
2049;SDS011;8478;49.208;8.806;2023-05-23T08:23:44;16.50;;;15.40;;
2049;SDS011;8478;49.208;8.806;2023-05-23T08:26:10;17.53;;;16.23;;
2049;SDS011;8478;49.208;8.806;2023-05-23T08:28:36;16.87;;;15.67;;
2049;SDS011;8478;49.208;8.806;2023-05-23T08:31:02;15.03;;;14.03;;
2049;SDS011;8478;49.208;8.806;2023-05-23T08:33:28;15.47;;;14.47;;
2049;SDS011;8478;49.208;8.806;2023-05-23T08:35:54;15.93;;;14.83;;
2049;SDS011;8478;49.208;8.806;2023-05-23T08:38:20;16.27;;;15.17;;
2049;SDS011;8478;49.208;8.806;2023-05-23T08:40:48;15.53;;;14.43;;
2049;SDS011;8478;49.208;8.806;2023-05-23T08:43:15;16.00;;;14.90;;
2049;SDS011;8478;49.208;8.806;2023-05-23T08:45:41;15.57;;;14.47;;
2049;SDS011;8478;49.208;8.806;2023-05-23T08:48:08;16.10;;;15.00;;
2049;SDS011;8478;49.208;8.806;2023-05-23T08:50:37;16.37;;;15.20;;
2049;SDS011;8478;49.208;8.806;2023-05-23T08:53:04;14.63;;;13.63;;
2049;SDS011;8478;49.208;8.806;2023-05-23T08:55:32;15.60;;;14.40;;
2049;SDS011;8478;49.208;8.806;2023-05-23T08:57:58;14.77;;;13.77;;
2049;SDS011;8478;49.208;8.806;2023-05-23T09:00:25;14.93;;;13.97;;
2049;SDS011;8478;49.208;8.806;2023-05-23T09:02:52;14.10;;;13.10;;
2049;SDS011;8478;49.208;8.806;2023-05-23T09:05:19;14.30;;;13.40;;
2049;SDS011;8478;49.208;8.806;2023-05-23T09:07:45;14.10;;;13.10;;
2049;SDS011;8478;49.208;8.806;2023-05-23T09:10:12;13.17;;;12.37;;
2049;SDS011;8478;49.208;8.806;2023-05-23T09:12:38;12.80;;;12.00;;
2049;SDS011;8478;49.208;8.806;2023-05-23T09:15:05;14.60;;;13.63;;
2049;SDS011;8478;49.208;8.806;2023-05-23T09:17:33;13.37;;;12.47;;
2049;SDS011;8478;49.208;8.806;2023-05-23T09:20:00;13.73;;;12.83;;
2049;SDS011;8478;49.208;8.806;2023-05-23T09:22:26;13.20;;;12.30;;
2049;SDS011;8478;49.208;8.806;2023-05-23T09:24:53;13.03;;;12.13;;
2049;SDS011;8478;49.208;8.806;2023-05-23T09:27:19;12.67;;;11.87;;
2049;SDS011;8478;49.208;8.806;2023-05-23T09:29:45;13.30;;;12.40;;
2049;SDS011;8478;49.208;8.806;2023-05-23T09:32:15;12.10;;;11.30;;
2049;SDS011;8478;49.208;8.806;2023-05-23T09:35:03;12.80;;;12.00;;
2049;SDS011;8478;49.208;8.806;2023-05-23T09:37:38;13.07;;;12.27;;
2049;SDS011;8478;49.208;8.806;2023-05-23T09:40:08;13.00;;;12.10;;
2049;SDS011;8478;49.208;8.806;2023-05-23T09:42:35;13.70;;;12.80;;
2049;SDS011;8478;49.208;8.806;2023-05-23T09:45:01;13.17;;;12.37;;
2049;SDS011;8478;49.208;8.806;2023-05-23T09:47:27;13.50;;;12.70;;
2049;SDS011;8478;49.208;8.806;2023-05-23T09:49:53;13.83;;;12.93;;
2049;SDS011;8478;49.208;8.806;2023-05-23T09:52:19;14.07;;;13.17;;
2049;SDS011;8478;49.208;8.806;2023-05-23T09:54:46;13.37;;;12.37;;
2049;SDS011;8478;49.208;8.806;2023-05-23T09:57:13;13.23;;;12.40;;
2049;SDS011;8478;49.208;8.806;2023-05-23T09:59:40;13.20;;;12.30;;
2049;SDS011;8478;49.208;8.806;2023-05-23T10:02:07;12.73;;;11.73;;
2049;SDS011;8478;49.208;8.806;2023-05-23T10:04:36;13.40;;;12.50;;
2049;SDS011;8478;49.208;8.806;2023-05-23T10:09:38;12.43;;;11.43;;
2049;SDS011;8478;49.208;8.806;2023-05-23T10:14:42;13.50;;;12.60;;
2049;SDS011;8478;49.208;8.806;2023-05-23T10:17:18;11.80;;;11.00;;
2049;SDS011;8478;49.208;8.806;2023-05-23T10:19:51;13.60;;;12.53;;
2049;SDS011;8478;49.208;8.806;2023-05-23T10:22:18;12.40;;;11.63;;
2049;SDS011;8478;49.208;8.806;2023-05-23T10:24:46;13.80;;;12.90;;
2049;SDS011;8478;49.208;8.806;2023-05-23T10:27:12;11.83;;;11.00;;
2049;SDS011;8478;49.208;8.806;2023-05-23T10:29:39;12.40;;;11.57;;
2049;SDS011;8478;49.208;8.806;2023-05-23T10:32:05;13.63;;;12.70;;
2049;SDS011;8478;49.208;8.806;2023-05-23T10:34:43;13.03;;;12.13;;
2049;SDS011;8478;49.208;8.806;2023-05-23T10:39:58;12.90;;;12.03;;
2049;SDS011;8478;49.208;8.806;2023-05-23T10:44:51;13.20;;;12.40;;
2049;SDS011;8478;49.208;8.806;2023-05-23T10:47:27;11.27;;;10.53;;
2049;SDS011;8478;49.208;8.806;2023-05-23T10:49:53;13.27;;;12.27;;
2049;SDS011;8478;49.208;8.806;2023-05-23T10:52:22;12.03;;;11.03;;
2049;SDS011;8478;49.208;8.806;2023-05-23T10:54:51;11.30;;;10.60;;
2049;SDS011;8478;49.208;8.806;2023-05-23T10:57:18;13.00;;;12.20;;
2049;SDS011;8478;49.208;8.806;2023-05-23T10:59:45;11.60;;;10.80;;
2049;SDS011;8478;49.208;8.806;2023-05-23T11:02:11;12.10;;;11.40;;
2049;SDS011;8478;49.208;8.806;2023-05-23T11:04:41;11.50;;;10.80;;
2049;SDS011;8478;49.208;8.806;2023-05-23T11:07:29;11.57;;;10.77;;
2049;SDS011;8478;49.208;8.806;2023-05-23T11:10:04;11.47;;;10.77;;
2049;SDS011;8478;49.208;8.806;2023-05-23T11:12:38;11.43;;;10.73;;
2049;SDS011;8478;49.208;8.806;2023-05-23T11:15:40;11.07;;;10.37;;
2049;SDS011;8478;49.208;8.806;2023-05-23T11:17:57;11.23;;;10.53;;
2049;SDS011;8478;49.208;8.806;2023-05-23T11:20:23;10.43;;;9.73;;
2049;SDS011;8478;49.208;8.806;2023-05-23T11:23:00;9.97;;;9.37;;
2049;SDS011;8478;49.208;8.806;2023-05-23T11:25:42;9.80;;;9.20;;
2049;SDS011;8478;49.208;8.806;2023-05-23T11:28:11;10.10;;;9.40;;
2049;SDS011;8478;49.208;8.806;2023-05-23T11:30:38;11.63;;;10.83;;
2049;SDS011;8478;49.208;8.806;2023-05-23T11:33:08;10.50;;;9.80;;
2049;SDS011;8478;49.208;8.806;2023-05-23T11:35:38;10.00;;;9.40;;
2049;SDS011;8478;49.208;8.806;2023-05-23T11:38:04;10.43;;;9.63;;
2049;SDS011;8478;49.208;8.806;2023-05-23T11:40:37;10.07;;;9.37;;
2049;SDS011;8478;49.208;8.806;2023-05-23T11:43:04;10.33;;;9.73;;
2049;SDS011;8478;49.208;8.806;2023-05-23T11:45:30;9.30;;;8.60;;
2049;SDS011;8478;49.208;8.806;2023-05-23T11:47:57;9.07;;;8.47;;
2049;SDS011;8478;49.208;8.806;2023-05-23T11:50:24;9.50;;;8.90;;
2049;SDS011;8478;49.208;8.806;2023-05-23T11:52:50;8.80;;;8.30;;
2049;SDS011;8478;49.208;8.806;2023-05-23T11:55:17;9.40;;;8.90;;
2049;SDS011;8478;49.208;8.806;2023-05-23T11:57:43;9.20;;;8.60;;
2049;SDS011;8478;49.208;8.806;2023-05-23T12:00:10;9.77;;;9.07;;
2049;SDS011;8478;49.208;8.806;2023-05-23T12:02:39;9.37;;;8.77;;
2049;SDS011;8478;49.208;8.806;2023-05-23T12:05:09;9.30;;;8.60;;
2049;SDS011;8478;49.208;8.806;2023-05-23T12:07:39;9.90;;;9.20;;
2049;SDS011;8478;49.208;8.806;2023-05-23T12:10:05;8.60;;;8.10;;
2049;SDS011;8478;49.208;8.806;2023-05-23T12:12:32;8.30;;;7.80;;
2049;SDS011;8478;49.208;8.806;2023-05-23T12:14:58;9.43;;;8.83;;
2049;SDS011;8478;49.208;8.806;2023-05-23T12:17:24;9.20;;;8.70;;
2049;SDS011;8478;49.208;8.806;2023-05-23T12:19:51;9.33;;;8.73;;
2049;SDS011;8478;49.208;8.806;2023-05-23T12:22:21;8.90;;;8.27;;
2049;SDS011;8478;49.208;8.806;2023-05-23T12:24:48;8.93;;;8.43;;
2049;SDS011;8478;49.208;8.806;2023-05-23T12:27:15;8.80;;;8.30;;
2049;SDS011;8478;49.208;8.806;2023-05-23T12:30:06;9.00;;;8.40;;
2049;SDS011;8478;49.208;8.806;2023-05-23T12:32:32;7.80;;;7.30;;
2049;SDS011;8478;49.208;8.806;2023-05-23T12:34:58;8.17;;;7.67;;
2049;SDS011;8478;49.208;8.806;2023-05-23T12:37:24;9.10;;;8.50;;
2049;SDS011;8478;49.208;8.806;2023-05-23T12:39:50;12.50;;;9.00;;
2049;SDS011;8478;49.208;8.806;2023-05-23T12:42:16;9.90;;;9.13;;
2049;SDS011;8478;49.208;8.806;2023-05-23T12:44:42;14.13;;;8.90;;
2049;SDS011;8478;49.208;8.806;2023-05-23T12:47:09;8.37;;;7.57;;
2049;SDS011;8478;49.208;8.806;2023-05-23T12:49:36;8.80;;;7.97;;
2049;SDS011;8478;49.208;8.806;2023-05-23T12:52:02;8.10;;;7.30;;
2049;SDS011;8478;49.208;8.806;2023-05-23T12:54:28;9.83;;;8.83;;
2049;SDS011;8478;49.208;8.806;2023-05-23T12:56:54;8.10;;;7.40;;
2049;SDS011;8478;49.208;8.806;2023-05-23T12:59:20;7.90;;;7.30;;
2049;SDS011;8478;49.208;8.806;2023-05-23T13:01:47;8.40;;;7.80;;
2049;SDS011;8478;49.208;8.806;2023-05-23T13:04:13;18.00;;;7.73;;
2049;SDS011;8478;49.208;8.806;2023-05-23T13:06:39;8.67;;;7.93;;
2049;SDS011;8478;49.208;8.806;2023-05-23T13:09:05;10.20;;;6.63;;
2049;SDS011;8478;49.208;8.806;2023-05-23T13:11:31;7.83;;;7.13;;
2049;SDS011;8478;49.208;8.806;2023-05-23T13:13:57;8.93;;;8.03;;
2049;SDS011;8478;49.208;8.806;2023-05-23T13:16:22;10.93;;;8.33;;
2049;SDS011;8478;49.208;8.806;2023-05-23T13:18:48;9.00;;;8.20;;
2049;SDS011;8478;49.208;8.806;2023-05-23T13:21:14;9.10;;;7.80;;
2049;SDS011;8478;49.208;8.806;2023-05-23T13:23:39;8.90;;;8.03;;
2049;SDS011;8478;49.208;8.806;2023-05-23T13:26:05;9.60;;;7.70;;
2049;SDS011;8478;49.208;8.806;2023-05-23T13:28:31;8.73;;;7.93;;
2049;SDS011;8478;49.208;8.806;2023-05-23T13:30:57;8.80;;;8.10;;
2049;SDS011;8478;49.208;8.806;2023-05-23T13:33:23;9.37;;;8.47;;
2049;SDS011;8478;49.208;8.806;2023-05-23T13:35:49;10.30;;;9.30;;
2049;SDS011;8478;49.208;8.806;2023-05-23T13:38:17;9.40;;;8.50;;
2049;SDS011;8478;49.208;8.806;2023-05-23T13:40:42;8.77;;;8.17;;
2049;SDS011;8478;49.208;8.806;2023-05-23T13:43:08;10.03;;;9.30;;
2049;SDS011;8478;49.208;8.806;2023-05-23T13:45:34;10.00;;;9.30;;
2049;SDS011;8478;49.208;8.806;2023-05-23T13:47:59;8.97;;;8.37;;
2049;SDS011;8478;49.208;8.806;2023-05-23T13:50:25;9.73;;;8.90;;
2049;SDS011;8478;49.208;8.806;2023-05-23T13:52:51;9.90;;;9.10;;
2049;SDS011;8478;49.208;8.806;2023-05-23T13:55:16;10.17;;;9.37;;
2049;SDS011;8478;49.208;8.806;2023-05-23T13:57:42;10.10;;;9.40;;
2049;SDS011;8478;49.208;8.806;2023-05-23T14:00:08;10.37;;;9.67;;
2049;SDS011;8478;49.208;8.806;2023-05-23T14:02:35;9.70;;;9.03;;
2049;SDS011;8478;49.208;8.806;2023-05-23T14:05:01;11.03;;;10.23;;
2049;SDS011;8478;49.208;8.806;2023-05-23T14:07:26;10.47;;;9.77;;
2049;SDS011;8478;49.208;8.806;2023-05-23T14:09:52;9.93;;;9.33;;
2049;SDS011;8478;49.208;8.806;2023-05-23T14:12:18;10.80;;;10.00;;
2049;SDS011;8478;49.208;8.806;2023-05-23T14:14:43;10.00;;;9.30;;
2049;SDS011;8478;49.208;8.806;2023-05-23T14:17:13;10.50;;;9.70;;
2049;SDS011;8478;49.208;8.806;2023-05-23T14:19:41;10.73;;;9.73;;
2049;SDS011;8478;49.208;8.806;2023-05-23T14:22:07;11.13;;;10.13;;
2049;SDS011;8478;49.208;8.806;2023-05-23T14:24:33;10.67;;;9.87;;
2049;SDS011;8478;49.208;8.806;2023-05-23T14:26:58;11.23;;;10.33;;
2049;SDS011;8478;49.208;8.806;2023-05-23T14:29:24;11.30;;;10.53;;
2049;SDS011;8478;49.208;8.806;2023-05-23T14:31:50;10.80;;;10.10;;
2049;SDS011;8478;49.208;8.806;2023-05-23T14:34:16;10.93;;;10.13;;
2049;SDS011;8478;49.208;8.806;2023-05-23T14:36:42;11.27;;;10.47;;
2049;SDS011;8478;49.208;8.806;2023-05-23T14:39:07;10.60;;;9.80;;
2049;SDS011;8478;49.208;8.806;2023-05-23T14:41:33;11.23;;;10.53;;
2049;SDS011;8478;49.208;8.806;2023-05-23T14:43:59;11.33;;;10.53;;
2049;SDS011;8478;49.208;8.806;2023-05-23T14:46:25;11.67;;;10.87;;
2049;SDS011;8478;49.208;8.806;2023-05-23T14:48:50;11.40;;;10.60;;
2049;SDS011;8478;49.208;8.806;2023-05-23T14:51:16;11.53;;;10.47;;
2049;SDS011;8478;49.208;8.806;2023-05-23T14:53:42;10.80;;;10.07;;
2049;SDS011;8478;49.208;8.806;2023-05-23T14:56:07;11.63;;;10.73;;
2049;SDS011;8478;49.208;8.806;2023-05-23T14:58:33;12.30;;;11.40;;
2049;SDS011;8478;49.208;8.806;2023-05-23T15:00:59;12.53;;;11.53;;
2049;SDS011;8478;49.208;8.806;2023-05-23T15:03:25;11.50;;;10.77;;
2049;SDS011;8478;49.208;8.806;2023-05-23T15:05:51;11.97;;;11.17;;
2049;SDS011;8478;49.208;8.806;2023-05-23T15:08:17;13.60;;;12.60;;
2049;SDS011;8478;49.208;8.806;2023-05-23T15:10:43;11.70;;;10.90;;
2049;SDS011;8478;49.208;8.806;2023-05-23T15:13:09;12.47;;;11.37;;
2049;SDS011;8478;49.208;8.806;2023-05-23T15:15:35;13.10;;;12.20;;